Terminal Aerodrome Forecast
Issued by NWS North Platte, NE

Home | Current Version | Previous Version | Text Only | Print | Product List | Glossary Off
Versions: 1 2 3 4 5 6 7 8 9 10 11 12 13 14 15 16 17 18 19 20 21 22 23 24 25

691
FTUS43 KLBF 270523
TAFVTN
TAF
KVTN 270523Z 2706/2806 36012KT P6SM VCSH OVC006
     FM271000 01017G25KT 5SM -SHRA BR OVC006
     FM271600 35020G28KT P6SM VCSH OVC008
     FM280100 33012G20KT P6SM OVC012=

USA.gov is the U.S. government's official web portal to all federal, state and local government web resources and services.